Time;durP1;ratioP1;P1;durP2;ratioP2;P2;SDS_P1;SDS_P2;PMS_P1;PMS_P2;Temp;Humidity;BMP_temperature;BMP_pressure;BME280_temperature;BME280_humidity;BME280_pressure;Samples;Min_cycle;Max_cycle;Signal;HPM_P1;HPM_P2
2023/03/24 00:09:08;;;;;;;35.00;22.70;;;;;;;9.01;100.00;99591.38;5106573;28;20222;-51
2023/03/24 00:11:59;;;;;;;33.00;22.67;;;;;;;8.88;100.00;99605.44;5109593;28;20198;-54
2023/03/24 00:18:09;;;;;;;33.43;22.17;;;;;;;8.98;100.00;99597.47;5109885;28;20195;-54
2023/03/24 00:20:57;;;;;;;28.87;21.80;;;;;;;8.96;100.00;99594.06;5109554;28;20190;-55
2023/03/24 00:23:48;;;;;;;32.90;22.77;;;;;;;8.96;100.00;99595.78;5106601;28;20285;-55
2023/03/24 00:26:56;;;;;;;32.27;22.23;;;;;;;9.04;100.00;99593.88;5104629;28;20682;-55
2023/03/24 00:32:51;;;;;;;37.40;24.57;;;;;;;8.76;100.00;99595.34;5108548;28;20277;-54
2023/03/24 00:35:45;;;;;;;40.03;24.13;;;;;;;8.72;100.00;99591.97;5108738;28;20271;-55
2023/03/24 00:38:47;;;;;;;35.33;24.93;;;;;;;8.64;100.00;99584.38;5108735;28;20209;-55
2023/03/24 00:41:44;;;;;;;39.83;25.63;;;;;;;8.60;100.00;99587.03;5109448;28;20731;-52
2023/03/24 00:45:23;;;;;;;37.93;25.20;;;;;;;8.56;100.00;99581.09;5109563;28;20285;-51
2023/03/24 00:48:17;;;;;;;44.53;26.23;;;;;;;8.54;100.00;99585.44;5109375;28;20226;-54
2023/03/24 00:51:19;;;;;;;38.47;25.83;;;;;;;8.62;100.00;99586.13;5106567;28;20210;-53
2023/03/24 00:57:14;;;;;;;43.23;29.33;;;;;;;8.57;100.00;99587.97;5108499;28;20204;-54
2023/03/24 01:00:18;;;;;;;41.67;27.90;;;;;;;8.56;100.00;99586.25;5109248;28;20201;-53
2023/03/24 01:03:20;;;;;;;40.17;26.03;;;;;;;8.39;100.00;99567.59;5108517;28;20238;-55
2023/03/24 01:06:20;;;;;;;40.50;26.10;;;;;;;8.29;100.00;99568.63;5108386;28;20685;-55
2023/03/24 01:09:08;;;;;;;39.87;25.10;;;;;;;8.32;100.00;99576.38;5109129;28;20214;-54
2023/03/24 01:12:11;;;;;;;38.07;24.33;;;;;;;8.14;100.00;99549.06;5109575;28;20599;-54
2023/03/24 01:15:20;;;;;;;37.30;25.40;;;;;;;8.26;100.00;99566.09;5108823;28;20194;-50
2023/03/24 01:18:02;;;;;;;35.90;24.37;;;;;;;8.20;100.00;99556.72;5105251;28;20183;-51
2023/03/24 01:20:44;;;;;;;37.87;23.47;;;;;;;8.24;100.00;99560.13;5105221;28;20306;-50
2023/03/24 01:23:31;;;;;;;35.50;24.43;;;;;;;8.23;100.00;99567.03;5107153;28;20532;-55
2023/03/24 01:26:21;;;;;;;39.40;26.80;;;;;;;8.14;100.00;99564.59;5110111;28;20202;-55
2023/03/24 01:29:16;;;;;;;32.00;22.07;;;;;;;8.12;100.00;99560.34;5091877;28;20219;-55
2023/03/24 01:35:24;;;;;;;38.43;26.10;;;;;;;8.05;100.00;99550.97;5090983;28;20670;-51
2023/03/24 01:38:07;;;;;;;42.53;25.97;;;;;;;7.96;100.00;99544.25;5091829;28;20192;-51
2023/03/24 01:41:11;;;;;;;40.00;25.33;;;;;;;8.04;100.00;99537.19;5091218;28;20198;-51
2023/03/24 01:44:13;;;;;;;38.23;24.70;;;;;;;8.17;100.00;99530.94;5091639;28;20199;-51
2023/03/24 01:47:04;;;;;;;41.00;26.67;;;;;;;8.15;100.00;99539.59;5091185;28;20572;-52
2023/03/24 01:50:18;;;;;;;40.27;27.17;;;;;;;8.13;100.00;99536.16;5091789;28;20315;-52
2023/03/24 01:53:17;;;;;;;43.80;28.73;;;;;;;8.07;100.00;99529.41;5091753;28;20195;-54
2023/03/24 01:56:10;;;;;;;42.10;28.83;;;;;;;8.05;100.00;99525.13;5091060;28;20202;-54
2023/03/24 01:59:27;;;;;;;43.50;27.47;;;;;;;8.01;100.00;99530.34;5091041;28;20666;-50
2023/03/24 02:02:25;;;;;;;44.70;28.00;;;;;;;7.99;100.00;99526.13;5091192;28;20204;-52
2023/03/24 02:05:23;;;;;;;41.13;26.80;;;;;;;7.96;100.00;99534.75;5091079;28;20199;-51
2023/03/24 02:11:29;;;;;;;38.77;26.73;;;;;;;8.06;100.00;99529.41;5090850;28;20687;-51
2023/03/24 02:18:06;;;;;;;40.43;26.30;;;;;;;7.83;100.00;99538.44;5088591;28;20195;-51
2023/03/24 02:21:36;;;;;;;40.80;26.70;;;;;;;7.88;100.00;99536.63;5090938;28;20199;-50
2023/03/24 02:25:25;;;;;;;38.53;24.63;;;;;;;7.83;100.00;99540.16;5090521;28;20199;-50
2023/03/24 02:32:08;;;;;;;33.53;22.00;;;;;;;7.80;100.00;99546.22;5088070;28;20250;-49
2023/03/24 02:38:48;;;;;;;34.30;22.47;;;;;;;7.85;100.00;99554.78;5086789;28;20231;-53
2023/03/24 02:42:08;;;;;;;32.83;21.70;;;;;;;7.89;100.00;99555.59;5091152;28;20238;-52
2023/03/24 02:45:08;;;;;;;33.63;22.90;;;;;;;7.89;100.00;99563.34;5091259;28;20256;-50
2023/03/24 02:51:18;;;;;;;30.07;20.83;;;;;;;7.81;100.00;99571.19;5090505;28;20203;-54
2023/03/24 02:54:16;;;;;;;32.73;21.73;;;;;;;7.77;100.00;99573.88;5089212;28;20784;-55
2023/03/24 03:00:44;;;;;;;31.80;20.87;;;;;;;7.64;100.00;99576.66;5090824;28;20283;-51
2023/03/24 03:10:15;;;;;;;30.80;19.83;;;;;;;7.42;100.00;99589.94;5087181;28;20219;-49
2023/03/24 03:13:23;;;;;;;28.83;19.10;;;;;;;7.36;100.00;99597.75;5089651;28;20202;-50
2023/03/24 03:16:33;;;;;;;29.10;20.00;;;;;;;7.28;100.00;99605.59;5090034;28;20207;-50
2023/03/24 03:19:17;;;;;;;30.37;20.07;;;;;;;7.13;100.00;99614.41;5088899;28;20200;-54
2023/03/24 03:28:15;;;;;;;27.50;17.93;;;;;;;7.21;100.00;99607.44;5089902;28;20349;-49
2023/03/24 03:31:28;;;;;;;26.50;18.03;;;;;;;7.23;100.00;99597.06;5087899;28;20249;-55
2023/03/24 03:34:26;;;;;;;26.83;18.50;;;;;;;7.20;100.00;99584.22;5089986;28;20677;-51
2023/03/24 03:37:28;;;;;;;26.93;18.50;;;;;;;7.19;100.00;99578.19;5089660;28;20287;-55
2023/03/24 03:40:08;;;;;;;26.30;18.17;;;;;;;7.25;100.00;99554.88;5090230;28;20287;-56
2023/03/24 03:43:10;;;;;;;24.80;17.00;;;;;;;7.26;100.00;99540.22;5089930;28;20679;-54
2023/03/24 03:48:53;;;;;;;24.23;16.10;;;;;;;7.36;100.00;99533.19;5087709;28;20250;-54
2023/03/24 03:52:08;;;;;;;21.53;15.83;;;;;;;7.20;100.00;99528.28;5089562;28;20260;-55
2023/03/24 03:58:10;;;;;;;22.87;16.13;;;;;;;7.21;100.00;99536.88;5089291;28;20199;-54
2023/03/24 04:00:44;;;;;;;23.23;16.07;;;;;;;7.22;100.00;99534.25;5088868;28;20227;-54
2023/03/24 04:06:54;;;;;;;23.10;17.13;;;;;;;7.01;100.00;99526.81;5088497;28;20207;-54
2023/03/24 04:09:48;;;;;;;26.13;16.70;;;;;;;6.93;100.00;99518.34;5089193;28;20227;-54
2023/03/24 04:12:51;;;;;;;24.23;16.53;;;;;;;7.03;100.00;99531.97;5089256;28;20188;-49
2023/03/24 04:15:58;;;;;;;23.93;16.57;;;;;;;7.01;100.00;99544.88;5089111;28;20194;-50
2023/03/24 04:18:53;;;;;;;22.20;16.50;;;;;;;7.06;100.00;99547.41;5088917;28;20764;-53
2023/03/24 04:21:59;;;;;;;23.00;16.30;;;;;;;7.07;100.00;99547.41;5089366;28;20199;-51
2023/03/24 04:24:55;;;;;;;25.90;16.47;;;;;;;7.03;100.00;99535.41;5091678;28;20205;-52
2023/03/24 04:27:41;;;;;;;26.53;18.07;;;;;;;7.22;100.00;99554.91;5109330;28;20190;-52
2023/03/24 04:30:25;;;;;;;25.63;17.90;;;;;;;7.26;100.00;99548.81;5109707;28;20222;-50
2023/03/24 04:33:09;;;;;;;25.10;17.40;;;;;;;7.33;100.00;99553.91;5109008;28;20194;-54
2023/03/24 04:35:53;;;;;;;27.00;18.40;;;;;;;7.29;100.00;99548.78;5103552;28;20222;-55
2023/03/24 04:38:29;;;;;;;25.63;17.70;;;;;;;7.27;100.00;99550.53;5106253;28;20218;-52
2023/03/24 04:41:01;;;;;;;24.60;17.23;;;;;;;7.35;100.00;99557.31;5104062;28;20218;-54
2023/03/24 04:43:39;;;;;;;26.90;17.30;;;;;;;7.40;100.00;99551.22;5106454;28;20298;-54
2023/03/24 04:46:16;;;;;;;24.20;16.50;;;;;;;7.50;100.00;99565.69;5105342;28;20254;-54
2023/03/24 04:48:54;;;;;;;26.50;16.87;;;;;;;7.63;100.00;99572.38;5105774;28;20279;-55
2023/03/24 04:51:28;;;;;;;22.53;15.37;;;;;;;7.69;100.00;99573.97;5103395;28;20297;-53
2023/03/24 04:54:05;;;;;;;25.67;16.93;;;;;;;7.82;100.00;99570.31;5103908;28;20356;-55
2023/03/24 04:56:46;;;;;;;24.23;16.90;;;;;;;7.88;100.00;99571.97;5104573;28;20206;-54
2023/03/24 04:59:24;;;;;;;26.90;16.37;;;;;;;7.92;100.00;99569.28;5107686;28;20248;-54
2023/03/24 05:02:01;;;;;;;19.87;15.10;;;;;;;7.94;100.00;99580.44;5110716;28;20607;-55
2023/03/24 05:04:40;;;;;;;22.30;17.23;;;;;;;8.00;100.00;99590.69;5108875;28;20267;-54
2023/03/24 05:07:20;;;;;;;26.37;15.00;;;;;;;7.98;100.00;99589.03;5112128;28;20202;-54
2023/03/24 05:09:59;;;;;;;23.43;15.10;;;;;;;7.99;100.00;99582.97;5102918;28;20670;-55
2023/03/24 05:12:29;;;;;;;22.57;16.10;;;;;;;8.14;100.00;99598.19;5091193;28;20693;-52
2023/03/24 05:15:05;;;;;;;20.57;15.67;;;;;;;8.11;100.00;99593.09;5109679;28;20226;-52
2023/03/24 05:17:52;;;;;;;24.67;15.90;;;;;;;8.29;100.00;99587.59;5111297;28;20756;-54
2023/03/24 05:20:40;;;;;;;25.90;16.20;;;;;;;8.49;100.00;99582.06;5111613;28;20359;-55
2023/03/24 05:23:20;;;;;;;26.30;16.27;;;;;;;8.56;100.00;99600.91;5111869;28;20218;-55
2023/03/24 05:26:17;;;;;;;25.23;16.23;;;;;;;9.19;100.00;99593.56;5111982;28;20289;-54
2023/03/24 05:28:57;;;;;;;21.43;15.80;;;;;;;10.51;100.00;99603.28;5111277;28;20191;-50
2023/03/24 05:31:54;;;;;;;26.47;16.13;;;;;;;12.58;100.00;99608.94;5112491;28;20298;-51
2023/03/24 05:35:10;;;;;;;25.97;16.67;;;;;;;14.66;96.82;99615.50;5112693;28;20658;-52
2023/03/24 05:37:52;;;;;;;19.60;14.40;;;;;;;16.28;87.20;99635.75;5112452;28;20199;-52
2023/03/24 05:40:57;;;;;;;19.53;15.33;;;;;;;17.17;82.82;99632.00;5109189;28;20279;-51
2023/03/24 05:43:52;;;;;;;19.03;15.13;;;;;;;17.93;75.88;99644.41;5108204;28;20232;-53
2023/03/24 05:49:39;;;;;;;18.05;13.65;;;;;;;19.82;66.92;99653.97;5111026;28;20217;-55
2023/03/24 05:58:36;;;;;;;18.42;14.35;;;;;;;22.08;55.61;99658.53;5103979;28;20315;-52
2023/03/24 06:01:18;;;;;;;17.67;14.93;;;;;;;22.81;53.30;99666.25;5104648;28;20215;-55
2023/03/24 06:07:02;;;;;;;18.13;15.80;;;;;;;23.59;48.72;99671.56;5089972;28;20262;-54
2023/03/24 06:10:21;;;;;;;24.90;15.65;;;;;;;23.53;48.66;99674.72;5090841;28;20215;-52
2023/03/24 06:13:35;;;;;;;;;;;;;;;;;;;;;
2023/03/24 06:16:34;;;;;;;21.77;16.08;;;;;;;24.52;44.54;99675.41;5089583;28;20207;-52
2023/03/24 06:19:26;;;;;;;16.83;15.07;;;;;;;24.89;43.26;99666.97;5091573;28;20258;-53
2023/03/24 06:22:30;;;;;;;20.63;16.15;;;;;;;25.22;41.60;99674.72;5090708;28;20195;-52
2023/03/24 06:28:31;;;;;;;19.05;15.25;;;;;;;24.70;42.19;99672.19;5089314;28;20203;-53
2023/03/24 06:31:37;;;;;;;23.08;16.00;;;;;;;25.57;40.50;99665.47;5091190;28;20726;-51
2023/03/24 06:34:47;;;;;;;;;;;;;;;;;;;;;
2023/03/24 06:40:35;;;;;;;15.35;13.75;;;;;;;25.21;40.55;99666.88;5109870;28;20710;-52
2023/03/24 06:53:00;;;;;;;16.70;15.00;;;;;;;27.71;34.80;99684.63;5110064;28;20195;-55
2023/03/24 06:59:22;;;;;;;19.77;15.40;;;;;;;27.69;34.31;99681.25;5108540;28;20278;-57
2023/03/24 07:05:21;;;;;;;17.77;15.93;;;;;;;27.79;33.67;99680.22;5087165;28;20195;-52
2023/03/24 07:08:11;;;;;;;17.60;15.07;;;;;;;27.24;34.64;99687.34;5090348;28;20302;-52
2023/03/24 07:10:51;;;;;;;18.65;16.05;;;;;;;27.52;34.31;99666.88;5097481;28;20237;-51
2023/03/24 07:13:46;;;;;;;22.08;17.17;;;;;;;27.41;34.37;99677.75;5109199;28;20291;-52
2023/03/24 07:16:38;;;;;;;18.52;16.00;;;;;;;27.83;33.82;99678.94;5109852;28;20679;-51
2023/03/24 07:19:41;;;;;;;17.48;15.57;;;;;;;29.18;31.30;99679.59;5107159;28;20201;-51
2023/03/24 07:22:27;;;;;;;17.58;15.55;;;;;;;30.32;30.41;99670.97;5109650;28;20682;-52
2023/03/24 07:25:20;;;;;;;15.50;14.00;;;;;;;31.26;28.92;99677.59;5110214;28;20738;-52
2023/03/24 07:28:22;;;;;;;16.65;15.07;;;;;;;31.48;28.40;99679.53;5089157;28;20191;-53
2023/03/24 07:34:28;;;;;;;16.38;14.68;;;;;;;30.00;29.83;99681.63;5089310;28;20199;-52
2023/03/24 07:37:04;;;;;;;15.65;12.85;;;;;;;29.75;30.19;99679.84;5089486;28;20199;-52
2023/03/24 07:39:46;;;;;;;18.17;14.30;;;;;;;30.93;28.71;99679.47;5104120;28;20279;-53
2023/03/24 07:42:44;;;;;;;15.95;14.43;;;;;;;31.65;27.83;99680.31;5108017;28;20225;-51
2023/03/24 07:45:33;;;;;;;15.15;13.68;;;;;;;31.81;27.24;99668.66;5109239;28;20205;-54
2023/03/24 07:48:24;;;;;;;15.15;13.75;;;;;;;32.25;27.31;99683.16;5108384;28;20277;-54
2023/03/24 07:51:10;;;;;;;16.80;15.10;;;;;;;31.94;27.56;99677.78;5107632;28;20221;-54
2023/03/24 07:54:12;;;;;;;17.38;15.00;;;;;;;32.33;27.25;99675.03;5102926;28;20203;-54
2023/03/24 07:57:08;;;;;;;18.95;15.95;;;;;;;32.10;27.94;99668.78;5089426;28;20740;-54
2023/03/24 08:00:14;;;;;;;18.77;15.77;;;;;;;32.85;26.39;99674.25;5089277;28;20199;-54
2023/03/24 08:03:27;;;;;;;19.35;16.05;;;;;;;31.38;28.14;99662.78;5088699;28;20239;-54
2023/03/24 08:06:12;;;;;;;18.00;16.27;;;;;;;30.72;29.06;99658.56;5089408;28;20581;-54
2023/03/24 08:09:10;;;;;;;26.88;16.23;;;;;;;29.67;30.38;99655.75;5089061;28;20244;-57
2023/03/24 08:12:04;;;;;;;21.65;16.70;;;;;;;27.65;32.76;99645.22;5089286;28;20317;-54
2023/03/24 08:15:09;;;;;;;22.23;17.30;;;;;;;25.17;37.07;99642.38;5098332;28;20201;-54
2023/03/24 08:18:13;;;;;;;25.15;19.23;;;;;;;22.62;42.95;99631.53;5109653;28;20202;-54
2023/03/24 08:20:55;;;;;;;22.90;19.25;;;;;;;21.40;46.48;99631.81;5101997;28;20214;-52
2023/03/24 08:23:31;;;;;;;25.10;19.83;;;;;;;20.33;50.05;99627.78;5105977;28;20279;-53
2023/03/24 08:26:09;;;;;;;23.92;17.98;;;;;;;19.78;51.81;99618.25;5101865;28;20198;-52
2023/03/24 08:29:21;;;;;;;;;;;;;;;;;;;;;
2023/03/24 08:32:08;;;;;;;20.23;16.05;;;;;;;19.05;54.55;99610.56;5089058;28;20229;-53
2023/03/24 08:35:11;;;;;;;21.17;15.95;;;;;;;19.07;54.47;99608.69;5093799;28;20226;-53
2023/03/24 08:38:29;;;;;;;17.13;15.23;;;;;;;18.88;53.99;99607.28;5111593;28;20666;-53
2023/03/24 08:41:15;;;;;;;17.83;15.98;;;;;;;18.59;55.74;99602.03;5104056;28;20221;-53
2023/03/24 08:55:58;;;;;;;20.45;14.77;;;;;;;18.37;57.14;99584.03;5110944;28;20662;-53
2023/03/24 08:58:38;;;;;;;15.27;13.77;;;;;;;18.12;57.43;99583.78;5104130;28;20226;-53
2023/03/24 09:01:12;;;;;;;21.25;14.95;;;;;;;18.09;56.95;99586.59;5108519;28;20274;-54
2023/03/24 09:03:53;;;;;;;18.23;14.80;;;;;;;18.07;57.29;99583.19;5109907;28;20227;-54
2023/03/24 09:06:49;;;;;;;21.33;14.90;;;;;;;18.01;58.85;99578.31;5092588;28;20283;-53
2023/03/24 09:09:22;;;;;;;20.67;16.48;;;;;;;18.11;58.97;99572.44;5092894;28;20195;-52
2023/03/24 09:12:09;;;;;;;19.48;15.25;;;;;;;18.16;58.73;99566.06;5107474;28;20283;-55
2023/03/24 09:15:03;;;;;;;22.60;15.25;;;;;;;18.20;59.37;99568.41;5091372;28;20650;-55
2023/03/24 09:18:11;;;;;;;17.27;15.32;;;;;;;18.11;59.63;99559.28;5092453;28;20217;-52
2023/03/24 09:21:33;;;;;;;16.90;15.18;;;;;;;18.00;60.98;99563.50;5092108;28;20195;-53
2023/03/24 09:27:43;;;;;;;17.25;13.40;;;;;;;18.65;57.91;99558.72;5091948;28;20210;-52
2023/03/24 09:30:31;;;;;;;16.23;13.50;;;;;;;18.80;56.81;99563.91;5092410;28;20203;-53
2023/03/24 09:32:59;;;;;;;17.13;13.05;;;;;;;18.63;56.28;99563.22;5091942;28;20236;-51
2023/03/24 09:35:49;;;;;;;18.25;13.57;;;;;;;18.58;56.53;99558.25;5091476;28;20222;-51
2023/03/24 09:42:09;;;;;;;15.50;13.35;;;;;;;18.57;55.96;99539.91;5091255;28;20217;-50
2023/03/24 09:45:22;;;;;;;14.80;11.98;;;;;;;18.14;56.09;99542.50;5091116;28;20285;-49
2023/03/24 09:48:22;;;;;;;15.57;12.48;;;;;;;17.73;57.67;99537.88;5091745;28;20191;-51
2023/03/24 09:51:11;;;;;;;14.15;12.70;;;;;;;17.73;57.52;99530.00;5091588;28;20306;-51
2023/03/24 09:54:27;;;;;;;17.50;11.88;;;;;;;18.03;57.07;99537.06;5096257;28;20845;-51
2023/03/24 10:19:29;;;;;;;13.13;10.80;;;;;;;18.39;53.70;99503.31;5090430;28;20218;-50
2023/03/24 10:22:35;;;;;;;13.88;11.35;;;;;;;18.36;53.87;99497.41;5091155;28;20575;-51
2023/03/24 10:25:30;;;;;;;12.20;11.10;;;;;;;18.61;53.99;99495.00;5091215;28;20195;-51
2023/03/24 10:28:20;;;;;;;12.73;10.32;;;;;;;18.92;52.91;99499.16;5087724;28;20733;-52
2023/03/24 10:31:06;;;;;;;12.38;11.00;;;;;;;19.10;52.81;99489.25;5092254;28;20233;-51
2023/03/24 10:33:42;;;;;;;15.30;10.45;;;;;;;19.17;53.21;99487.94;5106062;28;20218;-52
2023/03/24 10:36:34;;;;;;;14.98;11.93;;;;;;;19.01;53.95;99492.47;5107576;28;20222;-51
2023/03/24 10:39:44;;;;;;;;;;;;;;;;;;;;;
2023/03/24 10:45:16;;;;;;;18.38;12.15;;;;;;;19.20;53.43;99483.28;5106885;28;21022;-51
2023/03/24 10:48:26;;;;;;;12.60;11.40;;;;;;;19.31;53.20;99477.34;5109991;28;20293;-52
2023/03/24 10:51:25;;;;;;;11.93;10.82;;;;;;;19.24;52.60;99468.16;5109333;28;20349;-54
2023/03/24 10:54:30;;;;;;;11.20;10.10;;;;;;;18.83;52.22;99471.69;5109411;28;20198;-51
2023/03/24 10:57:09;;;;;;;11.70;10.48;;;;;;;18.91;52.25;99465.91;5104358;28;20309;-52
2023/03/24 11:00:05;;;;;;;11.57;10.43;;;;;;;18.68;52.50;99454.22;5110087;28;20767;-52
2023/03/24 11:03:07;;;;;;;11.73;10.38;;;;;;;18.66;52.46;99461.34;5109960;28;20273;-51
2023/03/24 11:06:11;;;;;;;10.80;9.68;;;;;;;18.65;52.26;99458.81;5069817;28;20226;-52
2023/03/24 11:09:37;;;;;;;;;;;;;;;;;;;;;
2023/03/24 11:15:43;;;;;;;11.60;9.75;;;;;;;18.74;52.05;99432.78;5067306;28;20213;-50
2023/03/24 11:18:55;;;;;;;12.02;10.27;;;;;;;18.91;52.50;99433.50;5070149;28;20202;-49
2023/03/24 11:21:38;;;;;;;12.93;10.52;;;;;;;19.04;52.43;99431.78;5056688;28;20241;-51
2023/03/24 11:24:19;;;;;;;12.32;10.60;;;;;;;19.04;52.27;99418.63;5069272;28;20227;-50
2023/03/24 11:27:14;;;;;;;11.30;10.15;;;;;;;19.04;52.18;99416.84;5069154;28;20307;-50
2023/03/24 11:30:11;;;;;;;12.52;10.50;;;;;;;18.81;51.38;99406.97;5067377;28;20200;-50
2023/03/24 11:33:06;;;;;;;12.50;10.32;;;;;;;18.71;52.00;99398.81;5069731;28;20610;-50
2023/03/24 11:36:00;;;;;;;11.88;10.70;;;;;;;18.55;52.92;99386.72;5069752;28;20231;-52
2023/03/24 11:38:43;;;;;;;12.05;10.90;;;;;;;18.59;52.61;99386.47;5069425;28;20707;-52
2023/03/24 11:44:30;;;;;;;10.68;9.60;;;;;;;18.71;52.59;99380.41;5065742;28;20239;-52
2023/03/24 11:47:20;;;;;;;11.00;9.93;;;;;;;18.76;52.47;99380.94;5068292;28;20594;-52
2023/03/24 11:50:28;;;;;;;11.90;10.65;;;;;;;18.85;52.60;99375.09;5069034;28;20286;-50
2023/03/24 11:56:41;;;;;;;13.55;9.48;;;;;;;18.83;53.81;99353.34;5067355;28;20196;-53
2023/03/24 11:59:41;;;;;;;10.27;9.38;;;;;;;18.91;52.08;99344.09;5069647;28;20211;-53
2023/03/24 12:02:35;;;;;;;9.40;8.50;;;;;;;19.09;51.44;99350.75;5068553;28;20188;-51
2023/03/24 12:05:37;;;;;;;8.75;8.05;;;;;;;19.00;50.05;99338.22;5104564;28;20225;-53
2023/03/24 12:08:36;;;;;;;9.73;8.70;;;;;;;19.11;50.89;99351.50;5105489;28;20202;-52
2023/03/24 12:11:33;;;;;;;9.40;8.63;;;;;;;18.89;49.60;99330.19;5107063;28;20715;-52
2023/03/24 12:14:12;;;;;;;8.98;8.18;;;;;;;18.96;50.72;99342.03;5105885;28;20636;-52
2023/03/24 12:17:13;;;;;;;9.15;8.35;;;;;;;18.97;50.25;99327.88;5106596;28;20190;-52
2023/03/24 12:20:16;;;;;;;8.98;8.20;;;;;;;18.92;49.79;99328.22;5106443;28;20195;-52
2023/03/24 12:23:07;;;;;;;7.88;7.20;;;;;;;18.80;49.36;99314.09;5107263;28;20669;-52
2023/03/24 12:26:09;;;;;;;7.35;6.70;;;;;;;18.87;49.02;99322.41;5105619;28;20259;-52
2023/03/24 12:28:54;;;;;;;8.30;6.85;;;;;;;18.97;48.65;99314.75;5103320;28;20597;-52
2023/03/24 12:31:55;;;;;;;7.13;6.63;;;;;;;19.00;48.93;99307.50;5106928;28;20214;-51
2023/03/24 12:34:56;;;;;;;8.55;7.80;;;;;;;19.10;49.53;99310.34;5107445;28;20200;-51
2023/03/24 12:37:45;;;;;;;8.20;7.50;;;;;;;19.21;48.55;99305.22;5107371;28;20274;-52
2023/03/24 12:40:55;;;;;;;7.60;6.90;;;;;;;19.27;47.15;99298.72;5108519;28;20195;-52
2023/03/24 12:43:48;;;;;;;7.50;6.80;;;;;;;19.30;47.86;99295.88;5107426;28;20535;-51
2023/03/24 12:46:45;;;;;;;9.15;7.95;;;;;;;19.29;50.54;99291.56;5105810;28;20191;-53
2023/03/24 12:50:05;;;;;;;8.30;7.70;;;;;;;19.25;50.72;99279.53;5107916;28;20195;-51
2023/03/24 12:53:11;;;;;;;8.77;7.88;;;;;;;19.22;50.59;99273.53;5107900;28;20214;-53
2023/03/24 12:55:52;;;;;;;8.65;7.28;;;;;;;19.19;49.81;99270.25;5105811;28;20205;-52
2023/03/24 12:58:40;;;;;;;7.65;6.93;;;;;;;19.23;49.91;99269.13;5103643;28;20187;-51
2023/03/24 13:01:28;;;;;;;7.43;6.82;;;;;;;19.30;49.36;99273.00;5107401;28;20191;-51
2023/03/24 13:04:11;;;;;;;6.57;6.07;;;;;;;19.28;47.62;99272.28;5104728;28;20223;-52
2023/03/24 13:07:07;;;;;;;7.43;6.72;;;;;;;19.22;49.26;99270.91;5105938;28;20682;-52
2023/03/24 13:10:03;;;;;;;7.55;6.85;;;;;;;19.31;48.97;99264.16;5104561;28;20259;-52
2023/03/24 13:12:42;;;;;;;6.63;6.05;;;;;;;19.08;49.03;99228.91;5106596;28;20222;-53
2023/03/24 13:15:42;;;;;;;6.82;6.13;;;;;;;19.40;48.86;99263.56;5106989;28;20559;-52
2023/03/24 13:18:36;;;;;;;6.55;6.15;;;;;;;19.35;48.73;99256.91;5107881;28;20244;-52
2023/03/24 13:21:07;;;;;;;6.65;5.88;;;;;;;19.40;47.71;99246.94;5110430;28;20575;-53
2023/03/24 13:23:53;;;;;;;6.60;6.00;;;;;;;19.46;47.13;99246.47;5106178;28;20559;-52
2023/03/24 13:26:46;;;;;;;8.52;6.80;;;;;;;19.45;47.76;99255.31;5109776;28;20681;-53
2023/03/24 13:29:40;;;;;;;6.03;5.50;;;;;;;19.44;46.38;99251.00;5108766;28;20252;-53
2023/03/24 13:32:35;;;;;;;5.68;5.25;;;;;;;19.48;45.89;99239.31;5105368;28;20219;-51
2023/03/24 13:35:31;;;;;;;6.35;5.85;;;;;;;19.53;46.58;99222.28;5108406;28;20601;-51
2023/03/24 13:38:24;;;;;;;6.97;6.38;;;;;;;19.53;47.19;99229.34;5109209;28;20194;-52
2023/03/24 13:41:12;;;;;;;6.57;6.07;;;;;;;19.51;47.09;99226.84;5108574;28;20191;-52
2023/03/24 13:44:06;;;;;;;6.55;6.05;;;;;;;19.51;47.15;99220.72;5108463;28;20658;-53
2023/03/24 13:47:01;;;;;;;7.07;6.57;;;;;;;19.57;47.04;99218.50;5111347;28;20552;-52
2023/03/24 13:50:15;;;;;;;7.32;5.82;;;;;;;19.61;46.51;99213.03;5110208;28;20222;-52
2023/03/24 13:53:08;;;;;;;7.38;6.68;;;;;;;19.67;48.95;99210.78;5111260;28;20279;-53
2023/03/24 13:56:05;;;;;;;7.20;6.60;;;;;;;19.65;49.40;99209.19;5109249;28;20195;-52
2023/03/24 13:59:36;;;;;;;7.53;6.80;;;;;;;19.64;48.82;99205.72;5110280;28;20199;-52
2023/03/24 14:02:55;;;;;;;6.68;6.07;;;;;;;19.64;48.38;99203.09;5111461;28;20194;-52
2023/03/24 14:06:13;;;;;;;6.30;5.88;;;;;;;19.64;48.74;99202.28;5070949;28;20235;-52
2023/03/24 14:09:31;;;;;;;6.45;5.88;;;;;;;19.67;48.58;99194.97;5070398;28;20743;-52
2023/03/24 14:12:41;;;;;;;6.88;5.70;;;;;;;19.63;47.94;99200.59;5069782;28;20227;-52
2023/03/24 14:28:41;;;;;;;5.20;4.90;;;;;;;19.65;45.38;99183.72;5070769;28;20231;-52
2023/03/24 14:31:30;;;;;;;5.13;4.72;;;;;;;19.58;45.53;99178.06;5065387;28;20223;-53
2023/03/24 14:34:24;;;;;;;5.05;4.70;;;;;;;19.57;45.28;99179.00;5059339;28;20238;-52
2023/03/24 14:37:14;;;;;;;4.65;4.28;;;;;;;19.52;45.18;99167.13;5057970;28;20306;-53
2023/03/24 14:40:09;;;;;;;4.95;4.55;;;;;;;19.64;44.73;99178.59;5069886;28;20311;-52
2023/03/24 14:43:21;;;;;;;6.40;4.68;;;;;;;19.63;44.22;99184.78;5068459;28;20216;-52
2023/03/24 14:46:10;;;;;;;4.60;4.30;;;;;;;19.61;42.91;99179.63;5069229;28;20678;-52
2023/03/24 14:48:57;;;;;;;4.75;4.45;;;;;;;19.62;42.64;99170.78;5069073;28;20231;-52
2023/03/24 14:51:46;;;;;;;5.03;4.63;;;;;;;19.61;42.59;99170.91;5069393;28;20231;-52
2023/03/24 14:54:39;;;;;;;4.82;4.53;;;;;;;19.56;42.45;99174.69;5068081;28;20206;-53
2023/03/24 14:57:49;;;;;;;4.78;4.47;;;;;;;19.44;42.25;99165.00;5069040;28;20184;-51
2023/03/24 15:04:13;;;;;;;5.32;4.78;;;;;;;19.46;41.98;99163.09;5077626;28;20736;-52
2023/03/24 15:10:33;;;;;;;4.65;4.35;;;;;;;19.52;41.93;99162.72;5106655;28;20294;-51
2023/03/24 15:23:29;;;;;;;3.88;3.67;;;;;;;19.43;41.82;99158.03;5109084;28;20287;-51
2023/03/24 15:26:26;;;;;;;3.85;3.63;;;;;;;19.46;42.07;99163.09;5110690;28;20636;-54
2023/03/24 15:32:47;;;;;;;9.05;4.38;;;;;;;19.39;43.03;99155.75;5107472;28;20317;-52
2023/03/24 15:38:50;;;;;;;5.65;4.28;;;;;;;19.30;43.62;99149.31;5107137;28;20206;-52
2023/03/24 15:41:46;;;;;;;4.68;4.28;;;;;;;19.23;43.47;99150.72;5108454;28;20678;-51
2023/03/24 15:44:53;;;;;;;4.95;4.55;;;;;;;19.23;43.27;99155.97;5110333;28;20666;-52
2023/03/24 15:53:56;;;;;;;4.60;4.20;;;;;;;19.08;44.00;99149.13;5107999;28;20226;-52
2023/03/24 15:57:02;;;;;;;4.72;4.43;;;;;;;19.13;44.09;99154.94;5109698;28;20701;-56
2023/03/24 16:00:08;;;;;;;4.38;4.07;;;;;;;19.04;44.72;99160.84;5110492;28;20591;-51
2023/03/24 16:03:03;;;;;;;5.30;4.85;;;;;;;18.99;45.12;99148.00;5109506;28;20281;-52
2023/03/24 16:06:38;;;;;;;;;;;;;;;;;;;;;
2023/03/24 16:21:27;;;;;;;6.60;3.63;;;;;;;18.69;45.02;99155.34;5109218;28;20240;-52
2023/03/24 16:24:29;;;;;;;4.00;3.70;;;;;;;18.59;45.33;99163.03;5107665;28;20190;-53
2023/03/24 16:27:29;;;;;;;5.45;3.75;;;;;;;18.49;45.07;99168.03;5105747;28;20194;-51
2023/03/24 16:30:23;;;;;;;4.82;4.32;;;;;;;18.44;45.06;99164.84;5109122;28;20201;-50
2023/03/24 16:33:21;;;;;;;4.53;4.03;;;;;;;18.31;45.49;99163.97;5109406;28;20218;-52
2023/03/24 16:36:09;;;;;;;4.60;4.13;;;;;;;18.27;44.87;99167.78;5109501;28;20198;-52
2023/03/24 16:39:05;;;;;;;21.63;15.65;;;;;;;18.26;45.12;99168.72;5109464;28;20202;-53
2023/03/24 16:42:05;;;;;;;4.75;4.45;;;;;;;18.18;44.98;99176.22;5109146;28;20226;-51
2023/03/24 16:48:04;;;;;;;6.78;6.28;;;;;;;18.03;44.52;99182.50;5106336;28;20199;-53
2023/03/24 16:51:04;;;;;;;8.27;7.40;;;;;;;17.93;44.80;99176.16;5109454;28;20198;-52
2023/03/24 16:54:06;;;;;;;6.97;5.45;;;;;;;17.82;44.83;99183.88;5111141;28;20237;-51
2023/03/24 16:56:39;;;;;;;5.20;4.80;;;;;;;17.85;44.46;99181.03;5111333;28;20217;-51
2023/03/24 16:59:27;;;;;;;7.18;4.30;;;;;;;17.84;44.92;99179.34;5113491;28;20234;-54
2023/03/24 17:02:04;;;;;;;4.78;4.38;;;;;;;17.67;45.24;99190.94;5110879;28;20198;-52
2023/03/24 17:04:35;;;;;;;5.32;4.82;;;;;;;17.55;45.61;99187.25;5108448;28;20257;-52
2023/03/24 17:07:15;;;;;;;5.40;5.00;;;;;;;17.43;46.25;99181.00;5110768;28;20326;-52
2023/03/24 17:10:10;;;;;;;7.97;5.10;;;;;;;17.54;46.53;99184.72;5112919;28;20214;-52